Time;durP1;ratioP1;P1;durP2;ratioP2;P2;SDS_P1;SDS_P2;PMS_P1;PMS_P2;Temp;Humidity;BMP_temperature;BMP_pressure;BME280_temperature;BME280_humidity;BME280_pressure;Samples;Min_cycle;Max_cycle;Signal;HPM_P1;HPM_P2
2023/10/06 00:01:21;;;;;;;19.53;6.97;;;11.40;99.90;;;;;;5062937;28;20550;-64
2023/10/06 00:04:08;;;;;;;17.47;6.93;;;11.30;99.90;;;;;;5068437;28;20250;-65
2023/10/06 00:06:55;;;;;;;23.43;7.10;;;11.40;99.90;;;;;;5065774;28;20282;-64
2023/10/06 00:09:44;;;;;;;19.30;6.47;;;11.40;99.90;;;;;;5066734;28;20826;-64
2023/10/06 00:12:32;;;;;;;17.00;6.33;;;11.40;99.90;;;;;;5065929;28;20646;-64
2023/10/06 00:15:24;;;;;;;15.13;5.93;;;11.40;99.90;;;;;;5065653;28;20279;-64
2023/10/06 00:18:16;;;;;;;21.93;6.20;;;11.40;99.90;;;;;;5052751;28;20206;-64
2023/10/06 00:21:14;;;;;;;14.00;5.77;;;11.40;99.90;;;;;;5060632;28;20208;-64
2023/10/06 00:24:01;;;;;;;16.13;6.00;;;11.40;99.90;;;;;;5064619;28;20370;-64
2023/10/06 00:26:49;;;;;;;17.90;6.03;;;11.50;99.90;;;;;;5063515;28;20670;-64
2023/10/06 00:29:38;;;;;;;13.67;6.00;;;11.50;99.90;;;;;;5059764;28;20195;-64
2023/10/06 00:32:26;;;;;;;17.50;6.50;;;11.40;99.90;;;;;;5061644;28;20341;-63
2023/10/06 00:35:15;;;;;;;20.03;6.23;;;11.50;99.90;;;;;;5062653;28;20207;-64
2023/10/06 00:38:12;;;;;;;21.63;6.47;;;11.60;99.90;;;;;;5064673;28;20209;-64
2023/10/06 00:41:06;;;;;;;17.50;6.87;;;11.60;99.90;;;;;;5065205;28;20209;-64
2023/10/06 00:43:54;;;;;;;20.10;7.53;;;11.70;99.90;;;;;;5053350;28;20219;-64
2023/10/06 00:46:44;;;;;;;18.53;6.93;;;11.50;99.90;;;;;;5060950;28;20203;-64
2023/10/06 00:49:31;;;;;;;17.97;6.60;;;11.40;99.90;;;;;;5066809;28;20737;-63
2023/10/06 00:52:19;;;;;;;20.20;7.23;;;11.50;99.90;;;;;;5061340;28;20229;-64
2023/10/06 00:55:11;;;;;;;18.27;7.43;;;11.50;99.90;;;;;;5054945;28;20553;-64
2023/10/06 00:57:58;;;;;;;15.00;7.07;;;11.50;99.90;;;;;;5069656;28;20204;-64
2023/10/06 01:00:46;;;;;;;17.20;7.47;;;11.40;99.90;;;;;;5064726;28;20209;-64
2023/10/06 01:03:38;;;;;;;20.40;6.80;;;11.40;99.90;;;;;;5065757;28;20691;-65
2023/10/06 01:06:33;;;;;;;18.57;6.67;;;11.40;99.90;;;;;;5062565;28;20256;-64
2023/10/06 01:09:30;;;;;;;19.07;8.03;;;11.30;99.90;;;;;;5067552;28;20203;-63
2023/10/06 01:12:19;;;;;;;18.37;6.87;;;11.30;99.90;;;;;;5064257;28;20276;-64
2023/10/06 01:15:16;;;;;;;19.70;6.53;;;11.30;99.90;;;;;;5066717;28;20204;-64
2023/10/06 01:18:19;;;;;;;15.53;6.50;;;11.30;99.90;;;;;;5061598;28;20241;-65
2023/10/06 01:21:17;;;;;;;18.33;6.43;;;11.30;99.90;;;;;;5063283;28;20203;-64
2023/10/06 01:24:12;;;;;;;22.70;6.83;;;11.20;99.90;;;;;;5060573;28;20299;-64
2023/10/06 01:27:00;;;;;;;21.40;6.60;;;11.20;99.90;;;;;;5062128;28;20720;-64
2023/10/06 01:29:52;;;;;;;20.23;6.30;;;11.20;99.90;;;;;;5053711;28;20690;-64
2023/10/06 01:32:41;;;;;;;18.03;6.83;;;11.10;99.90;;;;;;5063822;28;20288;-64
2023/10/06 01:35:28;;;;;;;16.30;6.30;;;11.10;99.90;;;;;;5061321;28;20199;-63
2023/10/06 01:38:22;;;;;;;19.83;6.50;;;11.10;99.90;;;;;;5065238;28;20205;-64
2023/10/06 01:41:11;;;;;;;20.47;6.67;;;11.00;99.90;;;;;;5058460;28;20274;-63
2023/10/06 01:43:59;;;;;;;18.03;6.80;;;11.10;99.90;;;;;;5065217;28;20225;-64
2023/10/06 01:46:53;;;;;;;18.50;6.60;;;11.10;99.90;;;;;;5056049;28;20208;-63
2023/10/06 01:49:43;;;;;;;18.17;6.63;;;11.10;99.90;;;;;;5060933;28;20205;-65
2023/10/06 01:52:30;;;;;;;16.23;6.33;;;11.00;99.90;;;;;;5063973;28;20625;-63
2023/10/06 01:55:22;;;;;;;16.67;6.23;;;10.90;99.90;;;;;;5057382;28;20197;-65
2023/10/06 01:58:11;;;;;;;16.50;6.53;;;10.80;99.90;;;;;;5062621;28;20251;-65
2023/10/06 02:00:59;;;;;;;21.43;6.93;;;10.70;99.90;;;;;;5062914;28;20345;-65
2023/10/06 02:03:46;;;;;;;20.27;6.23;;;10.70;99.90;;;;;;5063562;28;20230;-65
2023/10/06 02:06:33;;;;;;;21.00;7.33;;;10.70;99.90;;;;;;5059067;28;20232;-64
2023/10/06 02:09:20;;;;;;;16.30;6.00;;;10.60;99.90;;;;;;5053287;28;20293;-64
2023/10/06 02:12:08;;;;;;;14.83;6.07;;;10.60;99.90;;;;;;5059151;28;20211;-64
2023/10/06 02:14:57;;;;;;;17.87;7.10;;;10.60;99.90;;;;;;5057903;28;20288;-63
2023/10/06 02:17:45;;;;;;;17.60;6.57;;;10.50;99.90;;;;;;5060868;28;20287;-63
2023/10/06 02:20:34;;;;;;;20.63;6.53;;;10.30;99.90;;;;;;5051001;28;20263;-64
2023/10/06 02:23:22;;;;;;;14.17;6.57;;;10.30;99.90;;;;;;5061468;28;20664;-64
2023/10/06 02:26:12;;;;;;;15.97;6.43;;;10.20;99.90;;;;;;5059458;28;20249;-64
2023/10/06 02:28:59;;;;;;;13.07;6.03;;;10.30;99.90;;;;;;5057964;28;20686;-63
2023/10/06 02:31:48;;;;;;;22.93;5.93;;;10.20;99.90;;;;;;5060007;28;20578;-64
2023/10/06 02:34:38;;;;;;;13.63;5.63;;;10.30;99.90;;;;;;5056321;28;20199;-64
2023/10/06 02:37:25;;;;;;;13.93;5.50;;;10.20;99.90;;;;;;5057559;28;20200;-64
2023/10/06 02:40:13;;;;;;;12.33;5.80;;;10.20;99.90;;;;;;5063633;28;20203;-65
2023/10/06 02:43:03;;;;;;;16.50;6.17;;;10.10;99.90;;;;;;5066022;28;20569;-64
2023/10/06 02:45:51;;;;;;;14.50;6.33;;;10.10;99.90;;;;;;5060085;28;20208;-64
2023/10/06 02:48:48;;;;;;;14.60;6.20;;;10.00;99.90;;;;;;5060601;28;20244;-64
2023/10/06 02:51:47;;;;;;;16.47;6.60;;;9.90;99.90;;;;;;5063643;28;20314;-64
2023/10/06 02:54:34;;;;;;;17.10;6.33;;;9.90;99.90;;;;;;5063347;28;20211;-65
2023/10/06 02:57:21;;;;;;;18.83;6.13;;;9.80;99.90;;;;;;5061406;28;20227;-64
2023/10/06 03:03:17;;;;;;;18.37;6.53;;;9.70;99.90;;;;;;5061634;28;20201;-64
2023/10/06 03:06:08;;;;;;;16.03;6.93;;;9.60;99.90;;;;;;5061528;28;20241;-64
2023/10/06 03:08:55;;;;;;;18.67;7.10;;;9.60;99.90;;;;;;5057951;28;20209;-64
2023/10/06 03:11:43;;;;;;;17.60;7.63;;;9.50;99.90;;;;;;5059122;28;20206;-64
2023/10/06 03:14:38;;;;;;;16.90;7.70;;;9.60;99.90;;;;;;5059117;28;20193;-64
2023/10/06 03:17:26;;;;;;;20.43;7.97;;;9.60;99.90;;;;;;5063780;28;20203;-64
2023/10/06 03:20:18;;;;;;;17.43;8.10;;;9.60;99.90;;;;;;5060830;28;20227;-64
2023/10/06 03:23:23;;;;;;;17.00;8.67;;;9.50;99.90;;;;;;5057266;28;20246;-64
2023/10/06 03:26:19;;;;;;;20.57;7.67;;;9.50;99.90;;;;;;5066503;28;20561;-64
2023/10/06 03:29:11;;;;;;;18.73;8.07;;;9.40;99.90;;;;;;5060457;28;20202;-64
2023/10/06 03:31:58;;;;;;;22.03;9.67;;;9.30;99.90;;;;;;5063684;28;20218;-65
2023/10/06 03:34:47;;;;;;;20.80;9.97;;;9.20;99.90;;;;;;5060152;28;20672;-64
2023/10/06 03:37:45;;;;;;;19.53;8.83;;;9.20;99.90;;;;;;5064191;28;20201;-65
2023/10/06 03:40:42;;;;;;;18.20;9.17;;;9.20;99.90;;;;;;5059276;28;20254;-64
2023/10/06 03:43:35;;;;;;;20.07;9.60;;;9.10;99.90;;;;;;5059122;28;20252;-66
2023/10/06 03:46:24;;;;;;;22.10;8.53;;;9.10;99.90;;;;;;5062910;28;20200;-64
2023/10/06 03:49:13;;;;;;;16.80;8.60;;;9.00;99.90;;;;;;5064382;28;20571;-65
2023/10/06 03:52:00;;;;;;;15.17;7.33;;;8.90;99.90;;;;;;5062103;28;20282;-64
2023/10/06 03:54:48;;;;;;;17.20;7.80;;;8.70;99.90;;;;;;5062136;28;20200;-64
2023/10/06 03:57:37;;;;;;;15.33;7.97;;;8.70;99.90;;;;;;5053352;28;20199;-64
2023/10/06 04:00:27;;;;;;;17.63;7.70;;;8.60;99.90;;;;;;5050630;28;20276;-64
2023/10/06 04:03:15;;;;;;;20.23;8.70;;;8.60;99.90;;;;;;5065590;28;20202;-64
2023/10/06 04:06:03;;;;;;;19.07;8.93;;;8.50;99.90;;;;;;5057219;28;20233;-64
2023/10/06 04:08:52;;;;;;;18.23;9.23;;;8.50;99.90;;;;;;5064237;28;20987;-64
2023/10/06 04:11:42;;;;;;;16.27;8.60;;;8.40;99.90;;;;;;5059038;28;20978;-64
2023/10/06 04:14:32;;;;;;;17.60;8.50;;;8.50;99.90;;;;;;5059503;28;20191;-65
2023/10/06 04:17:21;;;;;;;19.90;8.63;;;8.50;99.90;;;;;;5062345;28;20253;-64
2023/10/06 04:20:13;;;;;;;18.23;8.57;;;8.50;99.90;;;;;;5064975;28;20684;-64
2023/10/06 04:23:02;;;;;;;17.67;8.03;;;8.50;99.90;;;;;;5058492;28;20208;-64
2023/10/06 04:25:50;;;;;;;15.27;8.37;;;8.50;99.90;;;;;;5064456;28;20284;-64
2023/10/06 04:28:38;;;;;;;19.40;8.13;;;8.40;99.90;;;;;;5058236;28;20216;-66
2023/10/06 04:31:26;;;;;;;18.43;8.20;;;8.40;99.90;;;;;;5054956;28;20200;-64
2023/10/06 04:34:14;;;;;;;15.90;8.57;;;8.40;99.90;;;;;;5055233;28;20209;-65
2023/10/06 04:37:01;;;;;;;13.67;8.10;;;8.30;99.90;;;;;;5064854;28;20212;-64
2023/10/06 04:39:48;;;;;;;22.40;8.83;;;8.30;99.90;;;;;;5058706;28;20203;-64
2023/10/06 04:42:38;;;;;;;16.73;7.97;;;8.40;99.90;;;;;;5055027;28;20543;-66
2023/10/06 04:45:26;;;;;;;15.53;7.67;;;8.30;99.90;;;;;;5051784;28;20213;-65
2023/10/06 04:48:15;;;;;;;15.07;7.40;;;8.30;99.90;;;;;;5058830;28;20207;-66
2023/10/06 04:51:03;;;;;;;17.10;7.43;;;8.30;99.90;;;;;;5056483;28;20280;-65
2023/10/06 04:53:50;;;;;;;16.90;7.87;;;8.30;99.90;;;;;;5062313;28;20233;-64
2023/10/06 04:56:37;;;;;;;19.23;7.53;;;8.30;99.90;;;;;;5055377;28;20563;-65
2023/10/06 04:59:24;;;;;;;20.33;8.93;;;8.20;99.90;;;;;;5061801;28;20208;-65
2023/10/06 05:02:11;;;;;;;19.10;7.53;;;8.20;99.90;;;;;;5064402;28;20590;-65
2023/10/06 05:05:00;;;;;;;21.67;7.60;;;8.20;99.90;;;;;;5054207;28;20246;-65
2023/10/06 05:07:48;;;;;;;19.63;8.37;;;8.20;99.90;;;;;;5055778;28;20220;-65
2023/10/06 05:10:36;;;;;;;15.07;8.13;;;8.20;99.90;;;;;;5053691;28;20247;-67
2023/10/06 05:13:23;;;;;;;18.73;8.60;;;8.20;99.90;;;;;;5050738;28;20205;-65
2023/10/06 05:16:11;;;;;;;19.97;8.67;;;8.30;99.90;;;;;;5057057;28;20279;-64
2023/10/06 05:18:58;;;;;;;17.30;8.03;;;8.30;99.90;;;;;;5059423;28;20235;-64
2023/10/06 05:21:48;;;;;;;16.67;8.63;;;8.30;99.90;;;;;;5056888;28;20198;-68
2023/10/06 05:24:35;;;;;;;18.90;8.80;;;8.30;99.90;;;;;;5055692;28;21449;-68
2023/10/06 05:27:22;;;;;;;18.27;8.53;;;8.30;99.90;;;;;;5058091;28;20209;-68
2023/10/06 05:30:13;;;;;;;19.87;9.13;;;8.30;99.90;;;;;;5057883;28;20661;-68
2023/10/06 05:33:00;;;;;;;15.97;8.47;;;8.30;99.90;;;;;;5061101;28;20300;-68
2023/10/06 05:35:48;;;;;;;16.27;8.90;;;8.30;99.90;;;;;;5058489;28;20203;-68
2023/10/06 05:38:37;;;;;;;19.37;9.20;;;8.40;99.90;;;;;;5055215;28;20651;-68
2023/10/06 05:41:32;;;;;;;17.10;8.87;;;8.60;99.90;;;;;;5058506;28;20331;-68
2023/10/06 05:44:21;;;;;;;21.20;8.93;;;8.70;99.90;;;;;;5053756;28;20230;-69
2023/10/06 05:47:08;;;;;;;20.47;9.43;;;8.70;99.90;;;;;;5052481;28;20201;-69
2023/10/06 05:49:58;;;;;;;20.23;9.73;;;8.80;99.90;;;;;;5065889;28;20206;-68
2023/10/06 05:52:51;;;;;;;24.40;12.17;;;8.90;99.90;;;;;;5050300;28;20228;-68
2023/10/06 05:55:41;;;;;;;21.67;9.93;;;9.20;99.90;;;;;;5073389;28;20659;-68
2023/10/06 05:58:30;;;;;;;20.50;9.57;;;9.40;99.90;;;;;;5056368;28;20223;-68
2023/10/06 06:01:18;;;;;;;25.07;11.97;;;9.50;99.90;;;;;;5061445;28;20207;-69
2023/10/06 06:04:12;;;;;;;19.17;11.37;;;9.60;99.90;;;;;;5056246;28;20196;-68
2023/10/06 06:07:02;;;;;;;27.53;12.80;;;9.80;99.90;;;;;;5057477;28;20597;-68
2023/10/06 06:09:50;;;;;;;28.40;13.70;;;10.00;99.90;;;;;;5067886;28;20201;-68
2023/10/06 06:12:39;;;;;;;35.73;15.23;;;10.00;99.90;;;;;;5071364;28;20585;-68
2023/10/06 06:15:26;;;;;;;33.17;15.63;;;9.90;99.90;;;;;;5070399;28;20849;-68
2023/10/06 06:18:13;;;;;;;31.23;14.87;;;9.80;99.90;;;;;;5057474;28;20200;-68
2023/10/06 06:21:02;;;;;;;34.23;16.30;;;9.90;99.90;;;;;;5067816;28;20213;-68
2023/10/06 06:23:50;;;;;;;28.63;15.47;;;10.00;99.90;;;;;;5062378;28;20322;-68
2023/10/06 06:26:37;;;;;;;29.70;17.33;;;10.10;99.90;;;;;;5063434;28;20679;-68
2023/10/06 06:29:26;;;;;;;39.60;16.37;;;10.00;99.90;;;;;;5055841;28;20259;-68
2023/10/06 06:32:14;;;;;;;32.43;17.60;;;10.10;99.90;;;;;;5063645;28;20204;-68
2023/10/06 06:35:01;;;;;;;41.63;20.03;;;10.20;99.90;;;;;;5064169;28;20216;-68
2023/10/06 06:37:51;;;;;;;38.80;16.27;;;10.10;99.90;;;;;;5051422;28;20246;-68
2023/10/06 06:40:38;;;;;;;33.93;17.90;;;10.10;99.90;;;;;;5064938;28;20274;-68
2023/10/06 06:43:25;;;;;;;36.77;18.50;;;10.00;99.90;;;;;;5057312;28;20563;-67
2023/10/06 06:46:16;;;;;;;39.50;17.80;;;10.00;99.90;;;;;;5065373;28;20597;-67
2023/10/06 06:49:03;;;;;;;33.17;17.80;;;9.80;99.90;;;;;;5065680;28;20586;-68
2023/10/06 06:51:52;;;;;;;39.03;19.03;;;10.00;99.90;;;;;;5062915;28;20284;-68
2023/10/06 06:54:46;;;;;;;35.63;17.33;;;10.10;99.90;;;;;;5055172;28;20193;-68
2023/10/06 06:57:33;;;;;;;27.77;15.00;;;10.20;99.90;;;;;;5063845;28;20209;-68
2023/10/06 07:00:21;;;;;;;35.60;18.20;;;10.00;99.90;;;;;;5057621;28;20211;-68
2023/10/06 07:03:11;;;;;;;37.27;18.97;;;9.90;99.90;;;;;;5058664;28;20257;-68
2023/10/06 07:05:58;;;;;;;32.47;12.90;;;9.90;99.90;;;;;;5064659;28;20238;-68
2023/10/06 07:08:45;;;;;;;37.60;18.33;;;10.10;99.90;;;;;;5066552;28;20205;-68
2023/10/06 07:11:34;;;;;;;37.87;18.17;;;10.10;99.90;;;;;;5062492;28;20203;-68
2023/10/06 07:14:21;;;;;;;39.43;19.23;;;10.30;99.90;;;;;;5054373;28;20197;-68
2023/10/06 07:17:08;;;;;;;41.23;19.47;;;10.40;99.90;;;;;;5059701;28;20241;-68
2023/10/06 07:20:00;;;;;;;35.93;18.10;;;10.40;99.90;;;;;;5058383;28;20203;-68
2023/10/06 07:22:48;;;;;;;33.73;18.80;;;10.70;99.90;;;;;;5055037;28;20284;-68
2023/10/06 07:25:37;;;;;;;35.27;18.40;;;10.90;99.90;;;;;;5058682;28;20224;-68
2023/10/06 07:28:24;;;;;;;38.37;18.73;;;10.90;99.90;;;;;;5056530;28;20201;-68
2023/10/06 07:31:12;;;;;;;38.37;19.07;;;11.10;99.90;;;;;;5057979;28;20443;-68
2023/10/06 07:34:03;;;;;;;38.50;18.70;;;11.20;99.90;;;;;;5054924;28;20239;-68
2023/10/06 07:36:51;;;;;;;33.47;19.10;;;11.40;99.90;;;;;;5060758;28;20200;-68
2023/10/06 07:39:39;;;;;;;34.87;18.40;;;11.30;99.90;;;;;;5048046;28;20651;-68
2023/10/06 07:42:26;;;;;;;34.80;17.53;;;11.60;99.90;;;;;;5057213;28;20200;-67
2023/10/06 07:45:13;;;;;;;32.57;18.27;;;11.60;99.90;;;;;;5055908;28;20250;-68
2023/10/06 07:48:00;;;;;;;28.33;15.63;;;11.60;99.90;;;;;;5055898;28;20226;-67
2023/10/06 07:50:49;;;;;;;33.70;15.33;;;11.60;99.90;;;;;;5058729;28;20204;-68
2023/10/06 07:53:38;;;;;;;22.50;13.07;;;11.60;99.90;;;;;;5052788;28;20218;-67
2023/10/06 07:56:26;;;;;;;25.40;14.83;;;11.70;99.90;;;;;;5072515;28;20211;-67
2023/10/06 07:59:13;;;;;;;28.10;12.73;;;11.60;99.90;;;;;;5060230;28;20200;-68
2023/10/06 08:02:00;;;;;;;23.33;11.07;;;11.50;99.90;;;;;;5057538;28;20230;-67
2023/10/06 08:04:47;;;;;;;22.53;12.40;;;11.40;99.90;;;;;;5056456;28;20621;-67
2023/10/06 08:07:34;;;;;;;20.80;12.63;;;11.30;99.90;;;;;;5059660;28;20235;-67
2023/10/06 08:10:23;;;;;;;22.83;12.20;;;11.40;99.90;;;;;;5062051;28;20206;-67
2023/10/06 08:13:11;;;;;;;19.73;10.27;;;11.10;99.90;;;;;;5053327;28;20214;-67
2023/10/06 08:15:58;;;;;;;19.67;10.87;;;11.10;99.90;;;;;;5058492;28;20217;-67
2023/10/06 08:18:46;;;;;;;9.57;5.17;;;11.20;99.90;;;;;;5056883;28;20206;-67
2023/10/06 08:21:33;;;;;;;22.40;13.33;;;11.10;99.90;;;;;;5057167;28;20199;-67
2023/10/06 08:24:22;;;;;;;24.77;14.23;;;11.20;99.90;;;;;;5064315;28;20356;-67
2023/10/06 08:27:11;;;;;;;13.17;7.43;;;11.40;99.90;;;;;;5051400;28;20214;-67
2023/10/06 08:29:58;;;;;;;25.07;14.13;;;11.70;99.90;;;;;;5052224;28;20227;-67
2023/10/06 08:32:46;;;;;;;28.53;12.50;;;11.90;99.90;;;;;;5057198;28;20302;-67
2023/10/06 08:35:33;;;;;;;27.83;14.80;;;12.10;99.90;;;;;;5060676;28;20193;-67
2023/10/06 08:38:20;;;;;;;31.20;14.00;;;11.70;99.90;;;;;;5058051;28;20871;-67
2023/10/06 08:41:09;;;;;;;31.53;14.03;;;11.60;99.90;;;;;;5051942;28;20205;-67
2023/10/06 08:43:58;;;;;;;24.73;10.33;;;11.70;99.90;;;;;;5050982;28;20204;-67
2023/10/06 08:46:47;;;;;;;22.73;9.83;;;11.90;99.90;;;;;;5054833;28;20307;-67
2023/10/06 08:49:35;;;;;;;20.67;9.60;;;12.00;99.90;;;;;;5054847;28;20598;-67
2023/10/06 08:52:22;;;;;;;18.83;11.07;;;11.90;99.90;;;;;;5056303;28;20235;-67
2023/10/06 08:55:14;;;;;;;21.50;12.20;;;12.00;99.90;;;;;;5051662;28;20603;-67
2023/10/06 08:58:02;;;;;;;26.33;12.13;;;12.00;99.90;;;;;;5045664;28;20204;-67
2023/10/06 09:00:50;;;;;;;19.37;9.30;;;12.70;99.90;;;;;;5057711;28;20211;-67
2023/10/06 09:03:38;;;;;;;15.83;9.00;;;13.10;99.90;;;;;;5051892;28;20224;-67
2023/10/06 09:06:25;;;;;;;17.73;11.00;;;12.80;99.90;;;;;;5052157;28;20743;-67
2023/10/06 09:09:26;;;;;;;23.67;11.80;;;13.20;99.90;;;;;;5053783;28;20216;-67
2023/10/06 09:12:23;;;;;;;15.70;7.90;;;13.70;99.90;;;;;;5051166;28;20675;-67
2023/10/06 09:15:16;;;;;;;20.97;10.70;;;13.80;99.90;;;;;;5052346;28;20201;-67
2023/10/06 09:18:18;;;;;;;15.43;9.57;;;12.90;99.90;;;;;;5050916;28;21010;-67
2023/10/06 09:21:12;;;;;;;24.47;10.70;;;13.00;99.90;;;;;;5055727;28;20210;-67
2023/10/06 09:24:03;;;;;;;23.00;11.03;;;13.00;99.90;;;;;;5058103;28;20213;-67
2023/10/06 09:26:50;;;;;;;19.67;9.50;;;13.00;99.90;;;;;;5058214;28;20221;-67
2023/10/06 09:29:37;;;;;;;17.13;9.63;;;13.70;99.90;;;;;;5058152;28;20208;-67
2023/10/06 09:32:25;;;;;;;16.73;8.77;;;13.90;99.90;;;;;;5054522;28;20606;-67
2023/10/06 09:35:20;;;;;;;13.87;7.53;;;13.80;99.90;;;;;;5054867;28;20210;-67
2023/10/06 09:38:13;;;;;;;14.37;7.63;;;14.00;99.90;;;;;;5049678;28;20195;-67
2023/10/06 09:41:00;;;;;;;13.20;7.50;;;13.80;99.90;;;;;;5055384;28;20198;-67
2023/10/06 09:43:47;;;;;;;12.67;7.10;;;13.30;99.90;;;;;;5052133;28;20661;-67
2023/10/06 09:46:35;;;;;;;15.57;7.27;;;13.10;99.90;;;;;;5051078;28;20589;-67
2023/10/06 09:49:22;;;;;;;11.13;6.57;;;13.20;99.90;;;;;;5056390;28;20377;-67
2023/10/06 09:52:12;;;;;;;11.73;5.70;;;13.80;99.90;;;;;;5055651;28;20603;-67
2023/10/06 09:54:59;;;;;;;10.63;5.03;;;13.90;99.90;;;;;;5054259;28;20203;-67
2023/10/06 09:57:48;;;;;;;10.93;4.77;;;15.00;99.90;;;;;;5057560;28;20198;-67
2023/10/06 10:00:39;;;;;;;9.97;4.83;;;15.30;99.90;;;;;;5057103;28;20199;-67
2023/10/06 10:03:26;;;;;;;6.10;2.27;;;15.10;99.90;;;;;;5062564;28;20567;-67
2023/10/06 10:06:15;;;;;;;9.17;3.43;;;14.50;99.90;;;;;;5055193;28;20606;-67
2023/10/06 10:09:07;;;;;;;11.07;4.90;;;14.70;99.90;;;;;;5068858;28;20277;-67
2023/10/06 10:11:56;;;;;;;8.90;4.30;;;14.90;99.90;;;;;;5060032;28;20735;-67
2023/10/06 10:14:50;;;;;;;8.03;4.60;;;15.60;99.90;;;;;;5055674;28;20212;-67
2023/10/06 10:17:43;;;;;;;9.60;4.33;;;15.60;99.90;;;;;;5063309;28;20200;-67
2023/10/06 10:20:32;;;;;;;12.07;4.23;;;15.50;99.90;;;;;;5050291;28;20691;-67
2023/10/06 10:23:19;;;;;;;9.77;4.53;;;16.20;99.90;;;;;;5051207;28;20204;-67
2023/10/06 10:26:22;;;;;;;11.93;4.30;;;16.10;99.90;;;;;;5049818;28;20217;-67
2023/10/06 10:29:28;;;;;;;15.07;4.10;;;16.60;99.90;;;;;;5053062;28;20745;-67
2023/10/06 10:32:16;;;;;;;8.60;3.80;;;17.20;99.90;;;;;;5049919;28;20205;-67
2023/10/06 10:35:12;;;;;;;10.23;3.77;;;17.80;99.90;;;;;;5049267;28;20671;-67
2023/10/06 10:38:01;;;;;;;8.17;3.43;;;17.90;99.90;;;;;;5050359;28;20254;-67
2023/10/06 10:40:48;;;;;;;6.77;3.60;;;17.80;99.90;;;;;;5056444;28;20228;-67
2023/10/06 10:43:38;;;;;;;8.10;3.43;;;17.10;99.90;;;;;;5059092;28;20207;-67
2023/10/06 10:46:31;;;;;;;10.47;3.53;;;16.80;99.90;;;;;;5060843;28;20212;-67
2023/10/06 10:49:19;;;;;;;9.77;3.27;;;16.60;99.90;;;;;;5052533;28;20204;-67
2023/10/06 10:52:07;;;;;;;8.43;3.20;;;16.40;99.90;;;;;;5057956;28;20220;-67
2023/10/06 10:54:56;;;;;;;7.20;2.90;;;15.80;99.90;;;;;;5059630;28;20243;-67
2023/10/06 10:57:44;;;;;;;5.40;2.30;;;16.40;99.90;;;;;;5058435;28;20205;-67
2023/10/06 11:00:34;;;;;;;6.10;2.77;;;16.50;99.90;;;;;;5056849;28;20194;-67
2023/10/06 11:03:21;;;;;;;11.47;3.13;;;15.70;99.90;;;;;;5060973;28;20216;-67
2023/10/06 11:06:08;;;;;;;10.40;2.63;;;15.50;99.90;;;;;;5056281;28;20710;-67
2023/10/06 11:08:55;;;;;;;12.20;2.40;;;15.90;99.90;;;;;;5057365;28;20671;-67
2023/10/06 11:11:44;;;;;;;6.10;2.17;;;16.90;99.90;;;;;;5052494;28;20204;-66
2023/10/06 11:14:31;;;;;;;8.70;2.70;;;17.00;99.90;;;;;;5057675;28;20204;-66
2023/10/06 11:17:24;;;;;;;6.30;2.13;;;17.00;99.90;;;;;;5058116;28;20228;-66
2023/10/06 11:20:21;;;;;;;7.07;2.17;;;16.70;99.90;;;;;;5055165;28;20204;-66
2023/10/06 11:23:09;;;;;;;7.50;2.27;;;16.50;99.90;;;;;;5056646;28;20207;-66
2023/10/06 11:25:56;;;;;;;6.30;2.40;;;16.60;99.90;;;;;;5063033;28;20208;-66
2023/10/06 11:28:44;;;;;;;5.77;2.00;;;16.60;99.90;;;;;;5053448;28;20212;-66
2023/10/06 11:31:32;;;;;;;5.53;2.33;;;17.00;99.90;;;;;;5061089;28;20211;-66
2023/10/06 11:34:20;;;;;;;6.40;1.87;;;17.00;99.90;;;;;;5056503;28;20469;-66
2023/10/06 11:37:08;;;;;;;9.03;2.90;;;16.60;99.90;;;;;;5059844;28;20206;-66
2023/10/06 11:39:57;;;;;;;6.93;2.30;;;17.00;99.90;;;;;;5057104;28;20205;-66
2023/10/06 11:42:44;;;;;;;6.63;2.10;;;17.70;99.90;;;;;;5060790;28;20212;-66
2023/10/06 11:45:32;;;;;;;6.33;2.57;;;17.50;99.90;;;;;;5057005;28;20250;-66
2023/10/06 11:48:25;;;;;;;2.90;1.57;;;17.10;99.90;;;;;;5059542;28;20690;-66
2023/10/06 11:51:15;;;;;;;6.37;1.90;;;18.00;99.90;;;;;;5059473;28;20202;-66
2023/10/06 11:54:03;;;;;;;10.00;2.23;;;17.80;99.90;;;;;;5059894;28;20201;-66
2023/10/06 11:56:51;;;;;;;5.63;1.90;;;18.30;99.90;;;;;;5057126;28;20224;-66
2023/10/06 11:59:39;;;;;;;3.33;1.63;;;18.20;99.90;;;;;;5068118;28;20267;-66
2023/10/06 12:02:26;;;;;;;7.07;2.20;;;18.50;93.80;;;;;;5056405;28;20688;-66
2023/10/06 12:05:14;;;;;;;9.63;1.87;;;17.30;99.50;;;;;;5062770;28;20582;-66
2023/10/06 12:08:04;;;;;;;2.47;1.50;;;18.10;98.40;;;;;;5063585;28;20270;-66
2023/10/06 12:10:52;;;;;;;5.37;1.80;;;18.50;91.00;;;;;;5065096;28;20264;-66
2023/10/06 12:13:39;;;;;;;4.13;1.77;;;17.50;95.40;;;;;;5065042;28;20829;-65
2023/10/06 12:16:26;;;;;;;8.63;2.17;;;17.80;94.00;;;;;;5056753;28;20216;-66
2023/10/06 12:19:13;;;;;;;6.57;2.10;;;18.10;97.50;;;;;;5067734;28;20654;-66
2023/10/06 12:22:01;;;;;;;5.03;2.10;;;18.60;97.60;;;;;;5059449;28;20208;-66
2023/10/06 12:24:49;;;;;;;5.97;2.03;;;18.20;94.80;;;;;;5058693;28;20492;-66
2023/10/06 12:27:36;;;;;;;7.57;2.10;;;17.90;93.10;;;;;;5059644;28;20230;-66
2023/10/06 12:30:25;;;;;;;4.50;2.10;;;18.20;96.70;;;;;;5061675;28;20776;-66
2023/10/06 12:33:13;;;;;;;9.00;2.20;;;18.30;94.30;;;;;;5060407;28;20227;-66
2023/10/06 12:36:04;;;;;;;3.30;1.90;;;18.50;96.70;;;;;;5063068;28;20213;-65
2023/10/06 12:38:51;;;;;;;4.13;2.00;;;17.90;95.90;;;;;;5061953;28;20282;-66
2023/10/06 12:41:46;;;;;;;5.60;2.47;;;17.70;99.90;;;;;;5060587;28;20208;-66
2023/10/06 12:44:39;;;;;;;5.03;2.17;;;17.50;96.90;;;;;;5058402;28;20204;-66
2023/10/06 12:47:26;;;;;;;6.70;2.20;;;17.70;99.90;;;;;;5064003;28;20218;-66
2023/10/06 12:50:16;;;;;;;6.47;1.97;;;17.60;99.90;;;;;;5057183;28;20213;-66
2023/10/06 12:53:04;;;;;;;7.30;2.63;;;18.00;99.70;;;;;;5065617;28;20228;-66
2023/10/06 12:55:56;;;;;;;4.50;2.00;;;17.60;99.90;;;;;;5062156;28;20218;-66
2023/10/06 12:58:45;;;;;;;9.00;3.03;;;17.00;99.90;;;;;;5069270;28;20651;-66
2023/10/06 13:01:32;;;;;;;3.73;2.03;;;15.90;99.90;;;;;;5064150;28;20215;-66
2023/10/06 13:04:19;;;;;;;10.60;2.50;;;16.00;99.90;;;;;;5061865;28;20192;-66
2023/10/06 13:07:07;;;;;;;12.33;3.13;;;16.60;99.90;;;;;;5057774;28;20245;-66
2023/10/06 13:09:54;;;;;;;8.97;2.93;;;16.30;99.90;;;;;;5069775;28;20223;-66
2023/10/06 13:12:41;;;;;;;5.00;2.67;;;16.50;99.90;;;;;;5067384;28;20683;-66
2023/10/06 13:15:30;;;;;;;7.60;3.20;;;16.60;99.90;;;;;;5058986;28;20207;-66
2023/10/06 13:18:18;;;;;;;5.73;2.67;;;17.00;99.90;;;;;;5061163;28;20654;-66
2023/10/06 13:21:07;;;;;;;7.87;3.17;;;17.40;99.90;;;;;;5064459;28;20209;-66
2023/10/06 13:23:57;;;;;;;10.07;4.90;;;17.60;99.90;;;;;;5061708;28;20593;-66
2023/10/06 13:26:45;;;;;;;7.43;2.87;;;17.30;99.90;;;;;;5061012;28;20208;-66
2023/10/06 13:29:32;;;;;;;5.63;3.17;;;17.10;99.90;;;;;;5065572;28;20201;-66
2023/10/06 13:32:21;;;;;;;5.77;2.80;;;16.90;99.90;;;;;;5061241;28;20240;-65
2023/10/06 13:35:15;;;;;;;4.97;3.00;;;15.80;99.90;;;;;;5052832;28;20747;-66
2023/10/06 13:38:02;;;;;;;6.57;2.53;;;15.50;99.90;;;;;;5052292;28;20287;-66
2023/10/06 13:40:50;;;;;;;9.97;3.30;;;15.70;99.90;;;;;;5063991;28;20204;-66
2023/10/06 13:43:37;;;;;;;9.47;2.77;;;16.10;99.90;;;;;;5062957;28;20301;-66
2023/10/06 13:46:25;;;;;;;8.43;3.30;;;16.70;99.90;;;;;;5064909;28;20209;-66
2023/10/06 13:49:14;;;;;;;9.07;2.90;;;16.80;99.90;;;;;;5057403;28;20204;-66
2023/10/06 13:52:01;;;;;;;6.43;3.30;;;17.30;99.90;;;;;;5061488;28;20228;-66
2023/10/06 13:54:49;;;;;;;7.83;3.30;;;17.50;99.90;;;;;;5064028;28;20203;-66
2023/10/06 13:57:36;;;;;;;4.57;2.57;;;17.80;99.90;;;;;;5067579;28;20284;-66
2023/10/06 14:00:29;;;;;;;5.50;2.70;;;17.70;99.90;;;;;;5063493;28;20201;-66
2023/10/06 14:03:17;;;;;;;4.37;2.47;;;17.50;99.90;;;;;;5062935;28;20220;-66
2023/10/06 14:06:07;;;;;;;7.00;3.13;;;17.40;99.90;;;;;;5058645;28;20243;-66
2023/10/06 14:08:54;;;;;;;6.60;2.77;;;17.70;99.90;;;;;;5068085;28;20233;-66
2023/10/06 14:11:41;;;;;;;9.17;2.43;;;17.70;99.90;;;;;;5063284;28;20199;-66
2023/10/06 14:14:54;;;;;;;8.10;3.27;;;17.30;99.90;;;;;;5063498;28;20199;-66
2023/10/06 14:17:42;;;;;;;6.37;3.10;;;16.70;99.90;;;;;;5067155;28;20268;-65
2023/10/06 14:20:29;;;;;;;5.27;3.07;;;16.40;99.90;;;;;;5063720;28;20206;-65
2023/10/06 14:23:23;;;;;;;6.43;2.77;;;16.00;99.90;;;;;;5057622;28;20206;-66
2023/10/06 14:26:11;;;;;;;7.27;3.03;;;15.80;99.90;;;;;;5067792;28;20444;-66
2023/10/06 14:28:58;;;;;;;8.70;3.07;;;15.70;99.90;;;;;;5063237;28;20698;-66
2023/10/06 14:31:58;;;;;;;10.63;3.03;;;15.90;99.90;;;;;;5068630;28;20201;-65
2023/10/06 14:34:58;;;;;;;8.43;2.93;;;15.80;99.90;;;;;;5067714;28;20256;-65
2023/10/06 14:38:04;;;;;;;9.37;3.10;;;16.20;99.90;;;;;;5069347;28;20298;-65